sensor_id;sensor_type;location;lat;lon;timestamp;P1;durP1;ratioP1;P2;durP2;ratioP2
13048;SDS011;6591;51.446;5.404;2023-05-23T00:01:49;18.40;;;14.83;;
13048;SDS011;6591;51.446;5.404;2023-05-23T00:04:20;18.50;;;14.17;;
13048;SDS011;6591;51.446;5.404;2023-05-23T00:06:47;17.55;;;13.75;;
13048;SDS011;6591;51.446;5.404;2023-05-23T00:09:16;18.07;;;14.03;;
13048;SDS011;6591;51.446;5.404;2023-05-23T00:11:43;18.27;;;13.77;;
13048;SDS011;6591;51.446;5.404;2023-05-23T00:14:11;18.13;;;13.40;;
13048;SDS011;6591;51.446;5.404;2023-05-23T00:16:43;16.00;;;12.82;;
13048;SDS011;6591;51.446;5.404;2023-05-23T00:19:11;17.20;;;13.63;;
13048;SDS011;6591;51.446;5.404;2023-05-23T00:21:42;18.30;;;13.97;;
13048;SDS011;6591;51.446;5.404;2023-05-23T00:24:14;18.63;;;15.27;;
13048;SDS011;6591;51.446;5.404;2023-05-23T00:26:44;19.23;;;13.93;;
13048;SDS011;6591;51.446;5.404;2023-05-23T00:29:14;15.85;;;13.52;;
13048;SDS011;6591;51.446;5.404;2023-05-23T00:31:42;18.95;;;14.30;;
13048;SDS011;6591;51.446;5.404;2023-05-23T00:34:13;16.10;;;13.30;;
13048;SDS011;6591;51.446;5.404;2023-05-23T00:36:43;16.92;;;12.32;;
13048;SDS011;6591;51.446;5.404;2023-05-23T00:39:14;15.10;;;12.05;;
13048;SDS011;6591;51.446;5.404;2023-05-23T00:41:48;14.67;;;11.97;;
13048;SDS011;6591;51.446;5.404;2023-05-23T00:44:18;15.40;;;11.73;;
13048;SDS011;6591;51.446;5.404;2023-05-23T00:46:48;13.93;;;12.43;;
13048;SDS011;6591;51.446;5.404;2023-05-23T00:49:20;14.52;;;11.40;;
13048;SDS011;6591;51.446;5.404;2023-05-23T00:51:48;11.80;;;10.20;;
13048;SDS011;6591;51.446;5.404;2023-05-23T00:54:17;12.45;;;10.13;;
13048;SDS011;6591;51.446;5.404;2023-05-23T00:56:50;14.63;;;10.02;;
13048;SDS011;6591;51.446;5.404;2023-05-23T00:59:18;11.98;;;9.73;;
13048;SDS011;6591;51.446;5.404;2023-05-23T01:01:47;10.90;;;9.63;;
13048;SDS011;6591;51.446;5.404;2023-05-23T01:04:16;14.25;;;11.85;;
13048;SDS011;6591;51.446;5.404;2023-05-23T01:06:45;12.90;;;10.50;;
13048;SDS011;6591;51.446;5.404;2023-05-23T01:09:14;13.88;;;11.32;;
13048;SDS011;6591;51.446;5.404;2023-05-23T01:11:52;12.70;;;11.40;;
13048;SDS011;6591;51.446;5.404;2023-05-23T01:14:41;12.03;;;10.73;;
13048;SDS011;6591;51.446;5.404;2023-05-23T01:17:41;15.93;;;11.43;;
13048;SDS011;6591;51.446;5.404;2023-05-23T01:20:23;17.23;;;11.87;;
13048;SDS011;6591;51.446;5.404;2023-05-23T01:26:06;16.30;;;12.55;;
13048;SDS011;6591;51.446;5.404;2023-05-23T01:28:46;16.40;;;11.87;;
13048;SDS011;6591;51.446;5.404;2023-05-23T01:31:20;16.80;;;11.90;;
13048;SDS011;6591;51.446;5.404;2023-05-23T01:33:53;16.70;;;11.97;;
13048;SDS011;6591;51.446;5.404;2023-05-23T01:36:21;13.77;;;11.05;;
13048;SDS011;6591;51.446;5.404;2023-05-23T01:38:50;13.45;;;10.35;;
13048;SDS011;6591;51.446;5.404;2023-05-23T01:41:17;12.47;;;9.63;;
13048;SDS011;6591;51.446;5.404;2023-05-23T01:43:44;14.10;;;10.10;;
13048;SDS011;6591;51.446;5.404;2023-05-23T01:46:13;15.47;;;10.07;;
13048;SDS011;6591;51.446;5.404;2023-05-23T01:48:42;15.50;;;10.23;;
13048;SDS011;6591;51.446;5.404;2023-05-23T01:51:11;15.90;;;12.30;;
13048;SDS011;6591;51.446;5.404;2023-05-23T01:53:40;17.55;;;11.32;;
13048;SDS011;6591;51.446;5.404;2023-05-23T01:56:08;16.23;;;12.05;;
13048;SDS011;6591;51.446;5.404;2023-05-23T01:58:36;16.05;;;11.27;;
13048;SDS011;6591;51.446;5.404;2023-05-23T02:01:03;15.35;;;12.07;;
13048;SDS011;6591;51.446;5.404;2023-05-23T02:03:30;14.20;;;11.18;;
13048;SDS011;6591;51.446;5.404;2023-05-23T02:05:58;16.43;;;10.70;;
13048;SDS011;6591;51.446;5.404;2023-05-23T02:08:25;18.08;;;12.50;;
13048;SDS011;6591;51.446;5.404;2023-05-23T02:10:52;17.13;;;13.33;;
13048;SDS011;6591;51.446;5.404;2023-05-23T02:13:20;16.13;;;11.52;;
13048;SDS011;6591;51.446;5.404;2023-05-23T02:15:47;16.80;;;12.33;;
13048;SDS011;6591;51.446;5.404;2023-05-23T02:18:15;18.87;;;11.93;;
13048;SDS011;6591;51.446;5.404;2023-05-23T02:20:43;17.98;;;12.38;;
13048;SDS011;6591;51.446;5.404;2023-05-23T02:23:10;16.70;;;12.00;;
13048;SDS011;6591;51.446;5.404;2023-05-23T02:25:37;16.10;;;11.03;;
13048;SDS011;6591;51.446;5.404;2023-05-23T02:28:05;16.37;;;11.43;;
13048;SDS011;6591;51.446;5.404;2023-05-23T02:30:32;17.97;;;11.97;;
13048;SDS011;6591;51.446;5.404;2023-05-23T02:33:03;17.10;;;11.23;;
13048;SDS011;6591;51.446;5.404;2023-05-23T02:35:32;16.27;;;11.88;;
13048;SDS011;6591;51.446;5.404;2023-05-23T02:37:59;16.65;;;12.20;;
13048;SDS011;6591;51.446;5.404;2023-05-23T02:40:26;18.73;;;12.87;;
13048;SDS011;6591;51.446;5.404;2023-05-23T02:42:54;15.48;;;10.95;;
13048;SDS011;6591;51.446;5.404;2023-05-23T02:45:23;19.13;;;13.23;;
13048;SDS011;6591;51.446;5.404;2023-05-23T02:47:50;17.50;;;12.30;;
13048;SDS011;6591;51.446;5.404;2023-05-23T02:50:17;16.43;;;11.37;;
13048;SDS011;6591;51.446;5.404;2023-05-23T02:52:44;16.85;;;11.32;;
13048;SDS011;6591;51.446;5.404;2023-05-23T02:55:11;21.13;;;12.23;;
13048;SDS011;6591;51.446;5.404;2023-05-23T02:57:42;14.30;;;10.73;;
13048;SDS011;6591;51.446;5.404;2023-05-23T03:00:10;12.83;;;9.87;;
13048;SDS011;6591;51.446;5.404;2023-05-23T03:02:39;14.03;;;9.43;;
13048;SDS011;6591;51.446;5.404;2023-05-23T03:05:07;16.17;;;9.65;;
13048;SDS011;6591;51.446;5.404;2023-05-23T03:07:34;11.80;;;8.82;;
13048;SDS011;6591;51.446;5.404;2023-05-23T03:10:02;11.53;;;8.80;;
13048;SDS011;6591;51.446;5.404;2023-05-23T03:12:29;8.83;;;7.50;;
13048;SDS011;6591;51.446;5.404;2023-05-23T03:14:56;13.77;;;7.97;;
13048;SDS011;6591;51.446;5.404;2023-05-23T03:17:24;9.10;;;7.15;;
13048;SDS011;6591;51.446;5.404;2023-05-23T03:19:51;9.48;;;6.82;;
13048;SDS011;6591;51.446;5.404;2023-05-23T03:22:18;8.30;;;6.53;;
13048;SDS011;6591;51.446;5.404;2023-05-23T03:24:46;8.23;;;6.13;;
13048;SDS011;6591;51.446;5.404;2023-05-23T03:27:13;9.30;;;6.75;;
13048;SDS011;6591;51.446;5.404;2023-05-23T03:29:40;7.67;;;5.57;;
13048;SDS011;6591;51.446;5.404;2023-05-23T03:32:08;6.85;;;5.93;;
13048;SDS011;6591;51.446;5.404;2023-05-23T03:34:35;7.40;;;5.50;;
13048;SDS011;6591;51.446;5.404;2023-05-23T03:37:03;7.20;;;5.68;;
13048;SDS011;6591;51.446;5.404;2023-05-23T03:39:31;6.97;;;5.27;;
13048;SDS011;6591;51.446;5.404;2023-05-23T03:41:58;6.47;;;5.03;;
13048;SDS011;6591;51.446;5.404;2023-05-23T03:44:25;7.83;;;5.60;;
13048;SDS011;6591;51.446;5.404;2023-05-23T03:46:53;6.60;;;5.18;;
13048;SDS011;6591;51.446;5.404;2023-05-23T03:49:20;6.20;;;4.90;;
13048;SDS011;6591;51.446;5.404;2023-05-23T03:51:47;9.77;;;6.27;;
13048;SDS011;6591;51.446;5.404;2023-05-23T03:54:15;10.83;;;6.50;;
13048;SDS011;6591;51.446;5.404;2023-05-23T03:56:43;7.37;;;6.10;;
13048;SDS011;6591;51.446;5.404;2023-05-23T03:59:10;6.87;;;5.43;;
13048;SDS011;6591;51.446;5.404;2023-05-23T04:01:39;8.80;;;6.22;;
13048;SDS011;6591;51.446;5.404;2023-05-23T04:04:07;7.28;;;5.43;;
13048;SDS011;6591;51.446;5.404;2023-05-23T04:06:35;8.07;;;6.15;;
13048;SDS011;6591;51.446;5.404;2023-05-23T04:09:03;9.77;;;6.40;;
13048;SDS011;6591;51.446;5.404;2023-05-23T04:11:36;9.20;;;6.70;;
13048;SDS011;6591;51.446;5.404;2023-05-23T04:14:03;13.40;;;7.20;;
13048;SDS011;6591;51.446;5.404;2023-05-23T04:16:30;6.23;;;5.30;;
13048;SDS011;6591;51.446;5.404;2023-05-23T04:18:59;9.43;;;6.13;;
13048;SDS011;6591;51.446;5.404;2023-05-23T04:21:31;7.83;;;6.40;;
13048;SDS011;6591;51.446;5.404;2023-05-23T04:24:08;7.17;;;5.93;;
13048;SDS011;6591;51.446;5.404;2023-05-23T04:26:35;8.17;;;6.20;;
13048;SDS011;6591;51.446;5.404;2023-05-23T04:29:03;7.83;;;5.67;;
13048;SDS011;6591;51.446;5.404;2023-05-23T04:31:32;7.93;;;5.93;;
13048;SDS011;6591;51.446;5.404;2023-05-23T04:34:00;9.83;;;6.40;;
13048;SDS011;6591;51.446;5.404;2023-05-23T04:36:28;8.87;;;6.43;;
13048;SDS011;6591;51.446;5.404;2023-05-23T04:38:56;7.87;;;5.97;;
13048;SDS011;6591;51.446;5.404;2023-05-23T04:41:23;8.25;;;6.20;;
13048;SDS011;6591;51.446;5.404;2023-05-23T04:44:03;10.60;;;6.47;;
13048;SDS011;6591;51.446;5.404;2023-05-23T04:46:42;13.45;;;7.35;;
13048;SDS011;6591;51.446;5.404;2023-05-23T04:49:37;9.90;;;7.10;;
13048;SDS011;6591;51.446;5.404;2023-05-23T04:52:07;11.50;;;7.60;;
13048;SDS011;6591;51.446;5.404;2023-05-23T04:54:38;9.02;;;6.80;;
13048;SDS011;6591;51.446;5.404;2023-05-23T04:57:11;11.35;;;7.45;;
13048;SDS011;6591;51.446;5.404;2023-05-23T04:59:38;10.73;;;7.53;;
13048;SDS011;6591;51.446;5.404;2023-05-23T05:02:05;13.13;;;7.82;;
13048;SDS011;6591;51.446;5.404;2023-05-23T05:04:33;13.93;;;9.02;;
13048;SDS011;6591;51.446;5.404;2023-05-23T05:07:01;15.20;;;8.70;;
13048;SDS011;6591;51.446;5.404;2023-05-23T05:09:29;18.83;;;8.60;;
13048;SDS011;6591;51.446;5.404;2023-05-23T05:11:57;14.10;;;9.03;;
13048;SDS011;6591;51.446;5.404;2023-05-23T05:14:25;13.02;;;9.18;;
13048;SDS011;6591;51.446;5.404;2023-05-23T05:16:53;16.30;;;9.43;;
13048;SDS011;6591;51.446;5.404;2023-05-23T05:19:28;15.20;;;9.45;;
13048;SDS011;6591;51.446;5.404;2023-05-23T05:21:56;15.88;;;9.52;;
13048;SDS011;6591;51.446;5.404;2023-05-23T05:24:23;15.52;;;7.97;;
13048;SDS011;6591;51.446;5.404;2023-05-23T05:26:50;15.85;;;9.30;;
13048;SDS011;6591;51.446;5.404;2023-05-23T05:29:18;15.33;;;9.33;;
13048;SDS011;6591;51.446;5.404;2023-05-23T05:31:45;17.40;;;9.40;;
13048;SDS011;6591;51.446;5.404;2023-05-23T05:34:12;17.63;;;9.57;;
13048;SDS011;6591;51.446;5.404;2023-05-23T05:36:39;15.63;;;9.45;;
13048;SDS011;6591;51.446;5.404;2023-05-23T05:39:11;17.90;;;9.70;;
13048;SDS011;6591;51.446;5.404;2023-05-23T05:41:41;19.75;;;9.75;;
13048;SDS011;6591;51.446;5.404;2023-05-23T05:44:13;15.13;;;9.50;;
13048;SDS011;6591;51.446;5.404;2023-05-23T05:46:41;19.98;;;9.82;;
13048;SDS011;6591;51.446;5.404;2023-05-23T05:49:08;19.20;;;10.30;;
13048;SDS011;6591;51.446;5.404;2023-05-23T05:51:37;18.80;;;9.32;;
13048;SDS011;6591;51.446;5.404;2023-05-23T05:54:05;19.30;;;9.63;;
13048;SDS011;6591;51.446;5.404;2023-05-23T05:56:32;19.03;;;8.87;;
13048;SDS011;6591;51.446;5.404;2023-05-23T05:58:59;14.60;;;8.30;;
13048;SDS011;6591;51.446;5.404;2023-05-23T06:01:27;13.47;;;8.10;;
13048;SDS011;6591;51.446;5.404;2023-05-23T06:03:54;15.73;;;8.00;;
13048;SDS011;6591;51.446;5.404;2023-05-23T06:06:22;18.50;;;8.70;;
13048;SDS011;6591;51.446;5.404;2023-05-23T06:08:49;14.55;;;8.02;;
13048;SDS011;6591;51.446;5.404;2023-05-23T06:11:16;15.17;;;7.50;;
13048;SDS011;6591;51.446;5.404;2023-05-23T06:13:44;18.90;;;8.27;;
13048;SDS011;6591;51.446;5.404;2023-05-23T06:16:11;17.30;;;8.00;;
13048;SDS011;6591;51.446;5.404;2023-05-23T06:18:39;15.23;;;7.70;;
13048;SDS011;6591;51.446;5.404;2023-05-23T06:21:07;11.83;;;7.47;;
13048;SDS011;6591;51.446;5.404;2023-05-23T06:23:35;16.03;;;7.30;;
13048;SDS011;6591;51.446;5.404;2023-05-23T06:26:03;16.03;;;7.73;;
13048;SDS011;6591;51.446;5.404;2023-05-23T06:28:33;13.40;;;6.70;;
13048;SDS011;6591;51.446;5.404;2023-05-23T06:31:00;11.50;;;5.77;;
13048;SDS011;6591;51.446;5.404;2023-05-23T06:33:27;11.97;;;6.03;;
13048;SDS011;6591;51.446;5.404;2023-05-23T06:35:54;11.50;;;6.07;;
13048;SDS011;6591;51.446;5.404;2023-05-23T06:38:21;9.20;;;4.80;;
13048;SDS011;6591;51.446;5.404;2023-05-23T06:40:49;9.07;;;5.33;;
13048;SDS011;6591;51.446;5.404;2023-05-23T06:43:17;7.20;;;4.33;;
13048;SDS011;6591;51.446;5.404;2023-05-23T06:45:50;9.17;;;4.77;;
13048;SDS011;6591;51.446;5.404;2023-05-23T06:48:17;8.93;;;5.00;;
13048;SDS011;6591;51.446;5.404;2023-05-23T06:50:45;9.20;;;4.65;;
13048;SDS011;6591;51.446;5.404;2023-05-23T06:53:13;9.43;;;4.97;;
13048;SDS011;6591;51.446;5.404;2023-05-23T06:55:44;6.67;;;4.63;;
13048;SDS011;6591;51.446;5.404;2023-05-23T06:58:15;5.93;;;4.10;;
13048;SDS011;6591;51.446;5.404;2023-05-23T07:00:42;7.30;;;4.60;;
13048;SDS011;6591;51.446;5.404;2023-05-23T07:03:29;10.67;;;5.53;;
13048;SDS011;6591;51.446;5.404;2023-05-23T07:06:00;12.80;;;5.10;;
13048;SDS011;6591;51.446;5.404;2023-05-23T07:08:28;12.07;;;4.88;;
13048;SDS011;6591;51.446;5.404;2023-05-23T07:10:59;8.97;;;4.40;;
13048;SDS011;6591;51.446;5.404;2023-05-23T07:13:34;9.63;;;4.93;;
13048;SDS011;6591;51.446;5.404;2023-05-23T07:16:02;9.23;;;4.65;;
13048;SDS011;6591;51.446;5.404;2023-05-23T07:18:32;9.27;;;5.07;;
13048;SDS011;6591;51.446;5.404;2023-05-23T07:21:03;10.97;;;5.20;;
13048;SDS011;6591;51.446;5.404;2023-05-23T07:23:33;9.63;;;4.77;;
13048;SDS011;6591;51.446;5.404;2023-05-23T07:26:00;8.13;;;5.07;;
13048;SDS011;6591;51.446;5.404;2023-05-23T07:28:38;9.32;;;4.40;;
13048;SDS011;6591;51.446;5.404;2023-05-23T07:31:06;9.10;;;4.45;;
13048;SDS011;6591;51.446;5.404;2023-05-23T07:33:36;9.15;;;4.55;;
13048;SDS011;6591;51.446;5.404;2023-05-23T07:36:04;9.50;;;4.70;;
13048;SDS011;6591;51.446;5.404;2023-05-23T07:38:31;10.20;;;5.05;;
13048;SDS011;6591;51.446;5.404;2023-05-23T07:40:58;8.57;;;4.47;;
13048;SDS011;6591;51.446;5.404;2023-05-23T07:43:39;9.88;;;5.18;;
13048;SDS011;6591;51.446;5.404;2023-05-23T07:46:07;9.77;;;5.20;;
13048;SDS011;6591;51.446;5.404;2023-05-23T07:48:36;8.15;;;4.43;;
13048;SDS011;6591;51.446;5.404;2023-05-23T07:51:03;8.48;;;4.40;;
13048;SDS011;6591;51.446;5.404;2023-05-23T07:53:30;10.07;;;4.97;;
13048;SDS011;6591;51.446;5.404;2023-05-23T07:55:57;9.13;;;4.80;;
13048;SDS011;6591;51.446;5.404;2023-05-23T07:58:29;8.57;;;4.30;;
13048;SDS011;6591;51.446;5.404;2023-05-23T08:00:56;9.52;;;4.80;;
13048;SDS011;6591;51.446;5.404;2023-05-23T08:03:43;8.38;;;4.30;;
13048;SDS011;6591;51.446;5.404;2023-05-23T08:06:17;9.52;;;4.85;;
13048;SDS011;6591;51.446;5.404;2023-05-23T08:08:44;7.50;;;5.05;;
13048;SDS011;6591;51.446;5.404;2023-05-23T08:11:12;10.93;;;5.47;;
13048;SDS011;6591;51.446;5.404;2023-05-23T08:13:44;11.98;;;5.50;;
13048;SDS011;6591;51.446;5.404;2023-05-23T08:16:30;7.80;;;4.70;;
13048;SDS011;6591;51.446;5.404;2023-05-23T08:18:58;13.05;;;5.28;;
13048;SDS011;6591;51.446;5.404;2023-05-23T08:21:26;8.30;;;4.22;;
13048;SDS011;6591;51.446;5.404;2023-05-23T08:23:53;9.27;;;4.75;;
13048;SDS011;6591;51.446;5.404;2023-05-23T08:26:20;13.15;;;5.35;;
13048;SDS011;6591;51.446;5.404;2023-05-23T08:28:49;8.38;;;4.65;;
13048;SDS011;6591;51.446;5.404;2023-05-23T08:31:17;9.52;;;5.38;;
13048;SDS011;6591;51.446;5.404;2023-05-23T08:33:44;8.55;;;5.10;;
13048;SDS011;6591;51.446;5.404;2023-05-23T08:36:11;7.13;;;4.45;;
13048;SDS011;6591;51.446;5.404;2023-05-23T08:38:39;10.23;;;4.70;;
13048;SDS011;6591;51.446;5.404;2023-05-23T08:41:15;7.40;;;4.38;;
13048;SDS011;6591;51.446;5.404;2023-05-23T08:43:48;6.35;;;4.18;;
13048;SDS011;6591;51.446;5.404;2023-05-23T08:46:24;8.27;;;4.20;;
13048;SDS011;6591;51.446;5.404;2023-05-23T08:48:53;6.07;;;4.30;;
13048;SDS011;6591;51.446;5.404;2023-05-23T08:51:26;6.45;;;3.33;;
13048;SDS011;6591;51.446;5.404;2023-05-23T08:53:57;6.15;;;4.05;;
13048;SDS011;6591;51.446;5.404;2023-05-23T08:56:27;9.13;;;4.20;;
13048;SDS011;6591;51.446;5.404;2023-05-23T08:58:56;11.38;;;4.38;;
13048;SDS011;6591;51.446;5.404;2023-05-23T09:01:25;8.10;;;4.80;;
13048;SDS011;6591;51.446;5.404;2023-05-23T09:03:55;8.75;;;4.32;;
13048;SDS011;6591;51.446;5.404;2023-05-23T09:06:35;8.88;;;4.43;;
13048;SDS011;6591;51.446;5.404;2023-05-23T09:09:03;8.52;;;4.60;;
13048;SDS011;6591;51.446;5.404;2023-05-23T09:11:30;4.88;;;3.88;;
13048;SDS011;6591;51.446;5.404;2023-05-23T09:14:04;5.30;;;3.40;;
13048;SDS011;6591;51.446;5.404;2023-05-23T09:16:36;6.10;;;3.50;;
13048;SDS011;6591;51.446;5.404;2023-05-23T09:19:10;9.02;;;4.10;;
13048;SDS011;6591;51.446;5.404;2023-05-23T09:21:44;6.80;;;4.00;;
13048;SDS011;6591;51.446;5.404;2023-05-23T09:24:17;8.73;;;4.45;;
13048;SDS011;6591;51.446;5.404;2023-05-23T09:26:48;7.75;;;3.65;;
13048;SDS011;6591;51.446;5.404;2023-05-23T09:29:18;9.45;;;4.30;;
13048;SDS011;6591;51.446;5.404;2023-05-23T09:31:47;7.57;;;4.07;;
13048;SDS011;6591;51.446;5.404;2023-05-23T09:34:14;8.60;;;3.78;;
13048;SDS011;6591;51.446;5.404;2023-05-23T09:36:41;6.05;;;3.30;;
13048;SDS011;6591;51.446;5.404;2023-05-23T09:39:10;6.35;;;3.78;;
13048;SDS011;6591;51.446;5.404;2023-05-23T09:41:38;8.65;;;3.67;;
13048;SDS011;6591;51.446;5.404;2023-05-23T09:44:06;6.50;;;3.28;;
13048;SDS011;6591;51.446;5.404;2023-05-23T09:46:35;7.32;;;2.90;;
13048;SDS011;6591;51.446;5.404;2023-05-23T09:49:16;7.32;;;2.88;;
13048;SDS011;6591;51.446;5.404;2023-05-23T09:51:55;9.15;;;3.22;;
13048;SDS011;6591;51.446;5.404;2023-05-23T09:54:24;5.32;;;2.95;;
13048;SDS011;6591;51.446;5.404;2023-05-23T09:56:52;8.00;;;3.33;;
13048;SDS011;6591;51.446;5.404;2023-05-23T09:59:22;6.22;;;2.90;;
13048;SDS011;6591;51.446;5.404;2023-05-23T10:01:56;7.18;;;2.65;;
13048;SDS011;6591;51.446;5.404;2023-05-23T10:04:30;5.45;;;2.50;;
13048;SDS011;6591;51.446;5.404;2023-05-23T10:07:01;6.93;;;3.10;;
13048;SDS011;6591;51.446;5.404;2023-05-23T10:09:53;7.82;;;2.53;;
13048;SDS011;6591;51.446;5.404;2023-05-23T10:12:35;8.90;;;2.63;;
13048;SDS011;6591;51.446;5.404;2023-05-23T10:15:12;6.22;;;2.55;;
13048;SDS011;6591;51.446;5.404;2023-05-23T10:17:48;7.95;;;2.67;;
13048;SDS011;6591;51.446;5.404;2023-05-23T10:20:42;7.13;;;2.88;;
13048;SDS011;6591;51.446;5.404;2023-05-23T10:23:16;7.68;;;2.90;;
13048;SDS011;6591;51.446;5.404;2023-05-23T10:25:44;9.15;;;2.63;;
13048;SDS011;6591;51.446;5.404;2023-05-23T10:28:13;7.00;;;2.55;;
13048;SDS011;6591;51.446;5.404;2023-05-23T10:30:41;6.25;;;2.58;;
13048;SDS011;6591;51.446;5.404;2023-05-23T10:33:10;6.65;;;3.03;;
13048;SDS011;6591;51.446;5.404;2023-05-23T10:35:46;5.43;;;2.28;;
13048;SDS011;6591;51.446;5.404;2023-05-23T10:38:28;9.25;;;2.90;;
13048;SDS011;6591;51.446;5.404;2023-05-23T10:41:30;6.65;;;3.05;;
13048;SDS011;6591;51.446;5.404;2023-05-23T10:44:09;8.18;;;3.13;;
13048;SDS011;6591;51.446;5.404;2023-05-23T10:47:02;7.70;;;2.75;;
13048;SDS011;6591;51.446;5.404;2023-05-23T10:49:37;5.80;;;2.20;;
13048;SDS011;6591;51.446;5.404;2023-05-23T10:52:17;7.97;;;2.92;;
13048;SDS011;6591;51.446;5.404;2023-05-23T10:54:51;8.27;;;2.88;;
13048;SDS011;6591;51.446;5.404;2023-05-23T10:57:29;5.68;;;2.55;;
13048;SDS011;6591;51.446;5.404;2023-05-23T10:59:56;7.75;;;2.60;;
13048;SDS011;6591;51.446;5.404;2023-05-23T11:02:24;8.10;;;3.08;;
13048;SDS011;6591;51.446;5.404;2023-05-23T11:10:57;9.88;;;3.20;;
13048;SDS011;6591;51.446;5.404;2023-05-23T11:16:25;10.80;;;3.72;;
13048;SDS011;6591;51.446;5.404;2023-05-23T11:21:54;6.78;;;3.33;;
13048;SDS011;6591;51.446;5.404;2023-05-23T11:27:29;6.45;;;2.90;;
13048;SDS011;6591;51.446;5.404;2023-05-23T11:32:49;5.80;;;2.72;;
13048;SDS011;6591;51.446;5.404;2023-05-23T11:35:19;10.32;;;3.45;;
13048;SDS011;6591;51.446;5.404;2023-05-23T11:37:47;6.93;;;2.83;;
13048;SDS011;6591;51.446;5.404;2023-05-23T11:40:31;7.97;;;3.20;;
13048;SDS011;6591;51.446;5.404;2023-05-23T11:43:05;7.22;;;2.72;;
13048;SDS011;6591;51.446;5.404;2023-05-23T11:45:35;6.72;;;2.90;;
13048;SDS011;6591;51.446;5.404;2023-05-23T11:48:13;8.70;;;2.80;;
13048;SDS011;6591;51.446;5.404;2023-05-23T11:50:43;7.70;;;2.65;;
13048;SDS011;6591;51.446;5.404;2023-05-23T11:53:14;5.95;;;2.65;;
13048;SDS011;6591;51.446;5.404;2023-05-23T11:55:55;7.82;;;2.90;;
13048;SDS011;6591;51.446;5.404;2023-05-23T11:58:29;5.50;;;2.75;;
13048;SDS011;6591;51.446;5.404;2023-05-23T12:01:05;6.68;;;2.67;;
13048;SDS011;6591;51.446;5.404;2023-05-23T12:03:34;7.30;;;2.47;;
13048;SDS011;6591;51.446;5.404;2023-05-23T12:06:18;7.70;;;2.83;;
13048;SDS011;6591;51.446;5.404;2023-05-23T12:08:46;5.78;;;2.70;;
13048;SDS011;6591;51.446;5.404;2023-05-23T12:11:13;8.35;;;2.90;;
13048;SDS011;6591;51.446;5.404;2023-05-23T12:13:41;7.82;;;2.47;;
13048;SDS011;6591;51.446;5.404;2023-05-23T12:16:08;7.30;;;2.83;;
13048;SDS011;6591;51.446;5.404;2023-05-23T12:18:42;5.68;;;2.70;;
13048;SDS011;6591;51.446;5.404;2023-05-23T12:21:10;3.88;;;2.17;;
13048;SDS011;6591;51.446;5.404;2023-05-23T12:23:38;6.57;;;2.60;;
13048;SDS011;6591;51.446;5.404;2023-05-23T12:26:05;7.63;;;2.90;;
13048;SDS011;6591;51.446;5.404;2023-05-23T12:28:34;7.15;;;3.08;;
13048;SDS011;6591;51.446;5.404;2023-05-23T12:31:11;6.72;;;2.42;;
13048;SDS011;6591;51.446;5.404;2023-05-23T12:33:43;5.68;;;2.67;;
13048;SDS011;6591;51.446;5.404;2023-05-23T12:36:14;6.43;;;2.40;;
13048;SDS011;6591;51.446;5.404;2023-05-23T12:38:48;6.13;;;2.90;;
13048;SDS011;6591;51.446;5.404;2023-05-23T12:41:16;7.03;;;2.50;;
13048;SDS011;6591;51.446;5.404;2023-05-23T12:43:51;10.10;;;3.30;;
13048;SDS011;6591;51.446;5.404;2023-05-23T12:46:21;10.32;;;3.28;;
13048;SDS011;6591;51.446;5.404;2023-05-23T12:48:51;6.20;;;2.83;;
13048;SDS011;6591;51.446;5.404;2023-05-23T12:51:19;9.70;;;4.50;;
13048;SDS011;6591;51.446;5.404;2023-05-23T12:53:47;7.10;;;2.58;;
13048;SDS011;6591;51.446;5.404;2023-05-23T12:56:14;7.45;;;3.63;;
13048;SDS011;6591;51.446;5.404;2023-05-23T12:58:41;4.47;;;2.88;;
13048;SDS011;6591;51.446;5.404;2023-05-23T13:01:09;7.78;;;3.20;;
13048;SDS011;6591;51.446;5.404;2023-05-23T13:03:36;8.70;;;3.80;;
13048;SDS011;6591;51.446;5.404;2023-05-23T13:06:05;6.22;;;3.08;;
13048;SDS011;6591;51.446;5.404;2023-05-23T13:08:32;6.20;;;3.20;;
13048;SDS011;6591;51.446;5.404;2023-05-23T13:10:59;4.95;;;2.50;;
13048;SDS011;6591;51.446;5.404;2023-05-23T13:13:26;5.43;;;2.55;;
13048;SDS011;6591;51.446;5.404;2023-05-23T13:15:55;7.75;;;2.88;;
13048;SDS011;6591;51.446;5.404;2023-05-23T13:18:22;9.55;;;2.67;;
13048;SDS011;6591;51.446;5.404;2023-05-23T13:20:49;6.97;;;2.45;;
13048;SDS011;6591;51.446;5.404;2023-05-23T13:23:16;7.72;;;2.85;;
13048;SDS011;6591;51.446;5.404;2023-05-23T13:25:43;7.82;;;2.40;;
13048;SDS011;6591;51.446;5.404;2023-05-23T13:28:10;5.95;;;2.60;;
13048;SDS011;6591;51.446;5.404;2023-05-23T13:30:38;5.43;;;2.40;;
13048;SDS011;6591;51.446;5.404;2023-05-23T13:33:05;6.03;;;2.85;;
13048;SDS011;6591;51.446;5.404;2023-05-23T13:35:32;6.53;;;2.60;;
13048;SDS011;6591;51.446;5.404;2023-05-23T13:37:59;8.15;;;2.63;;
13048;SDS011;6591;51.446;5.404;2023-05-23T13:40:27;7.60;;;2.72;;
13048;SDS011;6591;51.446;5.404;2023-05-23T13:42:54;5.88;;;2.22;;
13048;SDS011;6591;51.446;5.404;2023-05-23T13:45:21;6.22;;;2.53;;
13048;SDS011;6591;51.446;5.404;2023-05-23T13:47:49;7.60;;;2.78;;
13048;SDS011;6591;51.446;5.404;2023-05-23T13:50:16;6.60;;;2.47;;
13048;SDS011;6591;51.446;5.404;2023-05-23T13:52:43;6.28;;;2.60;;
13048;SDS011;6591;51.446;5.404;2023-05-23T13:55:14;7.30;;;2.85;;
13048;SDS011;6591;51.446;5.404;2023-05-23T13:57:44;6.10;;;2.35;;
13048;SDS011;6591;51.446;5.404;2023-05-23T14:00:11;6.15;;;2.70;;
13048;SDS011;6591;51.446;5.404;2023-05-23T14:02:39;6.97;;;2.42;;
13048;SDS011;6591;51.446;5.404;2023-05-23T14:05:07;7.85;;;2.58;;
13048;SDS011;6591;51.446;5.404;2023-05-23T14:07:35;8.23;;;2.83;;
13048;SDS011;6591;51.446;5.404;2023-05-23T14:10:02;5.43;;;2.33;;
13048;SDS011;6591;51.446;5.404;2023-05-23T14:12:30;4.88;;;2.25;;
13048;SDS011;6591;51.446;5.404;2023-05-23T14:14:57;4.10;;;2.20;;
13048;SDS011;6591;51.446;5.404;2023-05-23T14:17:24;8.18;;;3.20;;
13048;SDS011;6591;51.446;5.404;2023-05-23T14:19:52;8.82;;;2.55;;
13048;SDS011;6591;51.446;5.404;2023-05-23T14:22:19;6.72;;;2.67;;
13048;SDS011;6591;51.446;5.404;2023-05-23T14:24:46;6.80;;;2.67;;
13048;SDS011;6591;51.446;5.404;2023-05-23T14:27:13;7.07;;;2.58;;
13048;SDS011;6591;51.446;5.404;2023-05-23T14:29:40;6.35;;;2.53;;
13048;SDS011;6591;51.446;5.404;2023-05-23T14:32:11;5.53;;;2.28;;
13048;SDS011;6591;51.446;5.404;2023-05-23T14:34:39;9.55;;;2.45;;
13048;SDS011;6591;51.446;5.404;2023-05-23T14:37:06;6.10;;;2.42;;
13048;SDS011;6591;51.446;5.404;2023-05-23T14:39:33;5.15;;;2.40;;
13048;SDS011;6591;51.446;5.404;2023-05-23T14:42:01;5.47;;;2.40;;
13048;SDS011;6591;51.446;5.404;2023-05-23T14:44:28;7.22;;;2.50;;
13048;SDS011;6591;51.446;5.404;2023-05-23T14:46:55;5.07;;;2.28;;
13048;SDS011;6591;51.446;5.404;2023-05-23T14:49:23;5.82;;;2.10;;
13048;SDS011;6591;51.446;5.404;2023-05-23T14:51:52;5.57;;;2.30;;
13048;SDS011;6591;51.446;5.404;2023-05-23T14:54:19;6.95;;;2.55;;
13048;SDS011;6591;51.446;5.404;2023-05-23T14:56:46;5.60;;;2.55;;
13048;SDS011;6591;51.446;5.404;2023-05-23T14:59:16;5.85;;;2.30;;
13048;SDS011;6591;51.446;5.404;2023-05-23T15:01:43;5.53;;;2.60;;
13048;SDS011;6591;51.446;5.404;2023-05-23T15:04:10;5.90;;;2.47;;
13048;SDS011;6591;51.446;5.404;2023-05-23T15:06:38;8.38;;;2.75;;
13048;SDS011;6591;51.446;5.404;2023-05-23T15:09:05;6.53;;;2.50;;
13048;SDS011;6591;51.446;5.404;2023-05-23T15:11:35;4.90;;;2.47;;
13048;SDS011;6591;51.446;5.404;2023-05-23T15:14:04;6.97;;;2.67;;
13048;SDS011;6591;51.446;5.404;2023-05-23T15:16:31;8.00;;;2.55;;
13048;SDS011;6591;51.446;5.404;2023-05-23T15:19:03;6.22;;;2.90;;
13048;SDS011;6591;51.446;5.404;2023-05-23T15:21:31;9.55;;;2.90;;
13048;SDS011;6591;51.446;5.404;2023-05-23T15:23:58;6.85;;;2.53;;
13048;SDS011;6591;51.446;5.404;2023-05-23T15:26:25;5.68;;;2.70;;
13048;SDS011;6591;51.446;5.404;2023-05-23T15:28:53;7.25;;;2.90;;
13048;SDS011;6591;51.446;5.404;2023-05-23T15:31:21;5.65;;;2.58;;